Monday, January 21, 2019, 10:47 PM GMT
Back to Local

CYUL, Montreal / Pierre Elliot Trudeau International Airport, Que

Location: , , Canada Lat: 45.467
Local Time: 10:47 PM GMT (22:47 GMT) Lon: -73.75
Time Zone: GMT Elev: 101 ft

Show me the last for .
Show Decoded

2019-01-21 22:00 METAR CYUL 212200Z CCA 28018G24KT 30SM DRSN BKN110 M17/M25 A3012 RMK AC7 SLP205
                 =
2019-01-21 21:00 METAR CYUL 212100Z 28019G27KT 15SM DRSN BKN080 BKN150 M17/M25 A3008 RMK AS7AC1
                 AC TR SLP191 =
2019-01-21 20:00 METAR CYUL 212000Z 28020G27KT 15SM DRSN OVC055 M17/M25 A3004 RMK SC8 SLP178 =
2019-01-21 19:00 METAR CYUL 211900Z 28018G25KT 12SM DRSN FEW025 OVC040 M18/M24 A3001 RMK SC2SC6
                 SLP168 =
2019-01-21 18:47 METAR CYUL 211847Z 28016G26KT 5SM R24L/4000VP6000FT/D -SN BLSN BKN045 OVC070
                 M18/M24 A3001 RMK SC5AS3 SLP168 =
2019-01-21 18:00 METAR CYUL 211800Z 27016G21KT 1 1/4SM -SN BLSN OVC022 M19/M23 A3000 RMK SN1SC7
                 /S01/ SLP165 =
2019-01-21 17:41 METAR CYUL 211741Z 27017KT 1 1/4SM R24L/5000VP6000FT/U -SN BLSN OVC022 M19/M23
                 A3000 RMK SN1SC7 SLP164 =
2019-01-21 17:00 METAR CYUL 211700Z 26018KT 1 3/4SM -SN BLSN OVC022 M20/M23 A3000 RMK SC8 SLP163
                 =
2019-01-21 16:30 METAR CYUL 211630Z 26014G21KT 1 3/4SM -SN BLSN OVC025 M20/M24 A3000 RMK SC8
                 SLP163 =
2019-01-21 16:00 METAR CYUL 211600Z 27016G21KT 1 1/4SM R24L/4000VP6000FT/U -SN BLSN OVC020
                 M20/M24 A2999 RMK SN2SC6 VIS VRB 3/4-13/4 SLP161 =
2019-01-21 15:09 METAR CYUL 211509Z 27015G22KT 1 1/4SM -SN BLSN OVC025 M21/M25 A2998 RMK SN2SC6
                 SLP157 =
2019-01-21 15:00 METAR CYUL 211500Z 27018KT 2SM R24R/5500VP6000FT/D -SN DRSN BKN009 OVC025
                 M21/M25 A2997 RMK SF6SC2 SLP155 =
2019-01-21 14:26 METAR CYUL 211426Z 27017KT 2 1/2SM R24L/4500VP6000FT/D -SN DRSN BKN011 OVC025
                 M21/M25 A2995 RMK SC6SC2 SLP147 =
2019-01-21 14:21 METAR CYUL 211421Z 27014G19KT 3SM -SN DRSN BKN013 OVC027 M21/M25 A2995 RMK
                 SC6SC2 SLP147 =
2019-01-21 14:00 METAR CYUL 211400Z 27012G19KT 10SM -SN DRSN SCT025 BKN035 OVC120 M21/M25 A2994
                 RMK SC3SC2AC3 SLP144 =
2019-01-21 13:00 METAR CYUL 211300Z 26013KT 10SM -SN DRSN BKN019 OVC035 M21/M25 A2992 RMK SC6SC2
                 SLP137 =
2019-01-21 12:00 METAR CYUL 211200Z 26016G21KT 6SM -SN DRSN OVC035 M21/M25 A2989 RMK SC8 SLP128 =
2019-01-21 11:00 METAR CYUL 211100Z 26014KT 5SM -SN DRSN SCT020 OVC040 M21/M25 A2988 RMK SC3SC5
                 /S01/ SLP124 =
2019-01-21 10:00 METAR CYUL 211000Z 27012KT 5SM -SN BKN020 OVC035 M21/M25 A2989 RMK SC6SC2 SLP126
                 =
2019-01-21 09:00 METAR CYUL 210900Z 27011KT 8SM -SN BKN025 OVC050 M21/M25 A2988 RMK SC6SC2 SLP123
                 =
2019-01-21 08:00 METAR CYUL 210800Z 28009G15KT 7SM -SN FEW045 BKN065 OVC120 M21/M25 A2986 RMK
                 SC2SC3AC3 SLP117 =
2019-01-21 07:00 METAR CYUL 210700Z 27010KT 8SM -SN SCT035 OVC110 M20/M23 A2985 RMK SC3AC5 SLP112
                 =
2019-01-21 06:00 METAR CYUL 210600Z 30008KT 5SM -SN SCT050 OVC110 M19/M22 A2983 RMK SC3AC5 SLP107
                 =
2019-01-21 05:00 METAR CYUL 210500Z 31009KT 5SM -SN BKN016 OVC040 M19/M22 A2982 RMK SC6SC2 SLP103
                 =
2019-01-21 04:00 METAR CYUL 210400Z 30009KT 8SM -SN SCT045 OVC100 M18/M23 A2981 RMK SC3AC5 SLP101
                 =
2019-01-21 03:00 METAR CYUL 210300Z 32010G17KT 8SM -SN FEW040 SCT060 OVC095 M18/M24 A2981 RMK
                 SC2SC1AC5 SLP100 =
2019-01-21 02:00 METAR CYUL 210200Z 33008KT 5SM -SG DRSN FEW035 BKN060 OVC095 M18/M22 A2980 RMK
                 SC1SC6AC1 SLP097 =
2019-01-21 01:00 METAR CYUL 210100Z 32009KT 4SM -SN DRSN FEW015 BKN060 OVC090 M17/M21 A2980 RMK
                 SF1SC6AC2 SF TR SLP098 =
2019-01-21 00:00 METAR CYUL 210000Z 32012KT 290V360 5SM -SN DRSN FEW015 FEW025 OVC090 M17/M21
                 A2980 RMK SF1SC2AC6 SF TR SLP095 =
2019-01-20 23:00 METAR CYUL 202300Z 35014G20KT 4SM -SN DRSN FEW020 OVC095 M17/M21 A2977 RMK
                 SC2AC6 SLP087 =

Support USWX by starting your Amazon purchase here.